sensor_id;sensor_type;location;lat;lon;timestamp;P1;durP1;ratioP1;P2;durP2;ratioP2
9520;SDS011;4798;41.574;23.734;2023-02-23T00:02:00;12.93;;;1.50;;
9520;SDS011;4798;41.574;23.734;2023-02-23T00:04:33;1.63;;;0.87;;
9520;SDS011;4798;41.574;23.734;2023-02-23T00:07:02;1.63;;;0.60;;
9520;SDS011;4798;41.574;23.734;2023-02-23T00:09:31;0.47;;;0.33;;
9520;SDS011;4798;41.574;23.734;2023-02-23T00:12:04;1.47;;;0.70;;
9520;SDS011;4798;41.574;23.734;2023-02-23T00:14:34;2.30;;;0.93;;
9520;SDS011;4798;41.574;23.734;2023-02-23T00:17:04;0.97;;;0.97;;
9520;SDS011;4798;41.574;23.734;2023-02-23T00:19:40;0.40;;;0.30;;
9520;SDS011;4798;41.574;23.734;2023-02-23T00:22:09;0.40;;;0.30;;
9520;SDS011;4798;41.574;23.734;2023-02-23T00:24:38;0.40;;;0.20;;
9520;SDS011;4798;41.574;23.734;2023-02-23T00:27:09;0.50;;;0.30;;
9520;SDS011;4798;41.574;23.734;2023-02-23T00:29:43;0.37;;;0.33;;
9520;SDS011;4798;41.574;23.734;2023-02-23T00:32:15;0.50;;;0.40;;
9520;SDS011;4798;41.574;23.734;2023-02-23T00:34:45;0.40;;;0.30;;
9520;SDS011;4798;41.574;23.734;2023-02-23T00:37:15;0.40;;;0.30;;
9520;SDS011;4798;41.574;23.734;2023-02-23T00:39:43;0.60;;;0.60;;
9520;SDS011;4798;41.574;23.734;2023-02-23T00:42:13;0.30;;;0.20;;
9520;SDS011;4798;41.574;23.734;2023-02-23T00:44:42;0.40;;;0.30;;
9520;SDS011;4798;41.574;23.734;2023-02-23T00:47:13;0.83;;;0.83;;
9520;SDS011;4798;41.574;23.734;2023-02-23T00:49:41;0.30;;;0.30;;
9520;SDS011;4798;41.574;23.734;2023-02-23T00:52:10;0.50;;;0.43;;
9520;SDS011;4798;41.574;23.734;2023-02-23T00:54:40;0.70;;;0.70;;
9520;SDS011;4798;41.574;23.734;2023-02-23T00:57:08;0.57;;;0.57;;
9520;SDS011;4798;41.574;23.734;2023-02-23T00:59:38;0.47;;;0.40;;
9520;SDS011;4798;41.574;23.734;2023-02-23T01:02:06;0.60;;;0.57;;
9520;SDS011;4798;41.574;23.734;2023-02-23T01:04:35;0.40;;;0.30;;
9520;SDS011;4798;41.574;23.734;2023-02-23T01:07:03;1.60;;;0.43;;
9520;SDS011;4798;41.574;23.734;2023-02-23T01:09:32;0.50;;;0.50;;
9520;SDS011;4798;41.574;23.734;2023-02-23T01:12:00;0.30;;;0.20;;
9520;SDS011;4798;41.574;23.734;2023-02-23T01:14:33;0.50;;;0.30;;
9520;SDS011;4798;41.574;23.734;2023-02-23T01:17:04;0.30;;;0.20;;
9520;SDS011;4798;41.574;23.734;2023-02-23T01:19:33;0.87;;;0.57;;
9520;SDS011;4798;41.574;23.734;2023-02-23T01:22:01;0.40;;;0.40;;
9520;SDS011;4798;41.574;23.734;2023-02-23T01:24:29;0.40;;;0.30;;
9520;SDS011;4798;41.574;23.734;2023-02-23T01:26:58;0.30;;;0.20;;
9520;SDS011;4798;41.574;23.734;2023-02-23T01:29:26;0.60;;;0.60;;
9520;SDS011;4798;41.574;23.734;2023-02-23T01:31:55;0.53;;;0.53;;
9520;SDS011;4798;41.574;23.734;2023-02-23T01:34:24;0.50;;;0.50;;
9520;SDS011;4798;41.574;23.734;2023-02-23T01:36:53;0.30;;;0.20;;
9520;SDS011;4798;41.574;23.734;2023-02-23T01:39:22;0.60;;;0.60;;
9520;SDS011;4798;41.574;23.734;2023-02-23T01:41:50;0.40;;;0.40;;
9520;SDS011;4798;41.574;23.734;2023-02-23T01:47:21;0.40;;;0.30;;
9520;SDS011;4798;41.574;23.734;2023-02-23T01:49:53;0.50;;;0.37;;
9520;SDS011;4798;41.574;23.734;2023-02-23T01:52:21;3.23;;;1.03;;
9520;SDS011;4798;41.574;23.734;2023-02-23T01:54:50;2.90;;;0.73;;
9520;SDS011;4798;41.574;23.734;2023-02-23T01:57:21;1.03;;;0.50;;
9520;SDS011;4798;41.574;23.734;2023-02-23T01:59:52;0.30;;;0.27;;
9520;SDS011;4798;41.574;23.734;2023-02-23T02:02:22;0.50;;;0.50;;
9520;SDS011;4798;41.574;23.734;2023-02-23T02:05:00;0.30;;;0.30;;
9520;SDS011;4798;41.574;23.734;2023-02-23T02:07:33;1.27;;;0.97;;
9520;SDS011;4798;41.574;23.734;2023-02-23T02:10:05;0.47;;;0.43;;
9520;SDS011;4798;41.574;23.734;2023-02-23T02:13:04;0.57;;;0.57;;
9520;SDS011;4798;41.574;23.734;2023-02-23T02:15:36;0.50;;;0.30;;
9520;SDS011;4798;41.574;23.734;2023-02-23T02:18:20;0.30;;;0.30;;
9520;SDS011;4798;41.574;23.734;2023-02-23T02:27:07;1.50;;;0.50;;
9520;SDS011;4798;41.574;23.734;2023-02-23T02:32:47;0.77;;;0.37;;
9520;SDS011;4798;41.574;23.734;2023-02-23T02:38:56;4.73;;;0.30;;
9520;SDS011;4798;41.574;23.734;2023-02-23T02:41:33;0.40;;;0.30;;
9520;SDS011;4798;41.574;23.734;2023-02-23T02:44:10;0.50;;;0.40;;
9520;SDS011;4798;41.574;23.734;2023-02-23T02:46:45;0.40;;;0.30;;
9520;SDS011;4798;41.574;23.734;2023-02-23T02:49:19;1.23;;;0.93;;
9520;SDS011;4798;41.574;23.734;2023-02-23T02:51:54;0.80;;;0.80;;
9520;SDS011;4798;41.574;23.734;2023-02-23T02:54:29;0.67;;;0.67;;
9520;SDS011;4798;41.574;23.734;2023-02-23T02:57:03;0.63;;;0.40;;
9520;SDS011;4798;41.574;23.734;2023-02-23T02:59:41;0.40;;;0.30;;
9520;SDS011;4798;41.574;23.734;2023-02-23T03:02:27;0.40;;;0.30;;
9520;SDS011;4798;41.574;23.734;2023-02-23T03:05:16;0.40;;;0.30;;
9520;SDS011;4798;41.574;23.734;2023-02-23T03:08:07;0.80;;;0.80;;
9520;SDS011;4798;41.574;23.734;2023-02-23T03:10:59;0.30;;;0.20;;
9520;SDS011;4798;41.574;23.734;2023-02-23T03:13:56;0.40;;;0.30;;
9520;SDS011;4798;41.574;23.734;2023-02-23T03:16:52;8.00;;;0.40;;
9520;SDS011;4798;41.574;23.734;2023-02-23T03:19:47;0.77;;;0.77;;
9520;SDS011;4798;41.574;23.734;2023-02-23T03:22:43;0.40;;;0.30;;
9520;SDS011;4798;41.574;23.734;2023-02-23T03:25:40;0.73;;;0.57;;
9520;SDS011;4798;41.574;23.734;2023-02-23T03:28:34;0.33;;;0.27;;
9520;SDS011;4798;41.574;23.734;2023-02-23T03:31:31;0.70;;;0.70;;
9520;SDS011;4798;41.574;23.734;2023-02-23T03:34:26;0.40;;;0.40;;
9520;SDS011;4798;41.574;23.734;2023-02-23T03:37:16;1.03;;;0.60;;
9520;SDS011;4798;41.574;23.734;2023-02-23T03:40:07;0.40;;;0.30;;
9520;SDS011;4798;41.574;23.734;2023-02-23T03:42:58;1.63;;;0.60;;
9520;SDS011;4798;41.574;23.734;2023-02-23T03:45:51;0.30;;;0.20;;
9520;SDS011;4798;41.574;23.734;2023-02-23T03:48:40;0.30;;;0.30;;
9520;SDS011;4798;41.574;23.734;2023-02-23T03:51:29;0.67;;;0.67;;
9520;SDS011;4798;41.574;23.734;2023-02-23T03:54:19;0.40;;;0.30;;
9520;SDS011;4798;41.574;23.734;2023-02-23T03:57:12;0.30;;;0.30;;
9520;SDS011;4798;41.574;23.734;2023-02-23T04:00:03;0.60;;;0.60;;
9520;SDS011;4798;41.574;23.734;2023-02-23T04:02:54;0.40;;;0.30;;
9520;SDS011;4798;41.574;23.734;2023-02-23T04:05:43;0.40;;;0.40;;
9520;SDS011;4798;41.574;23.734;2023-02-23T04:08:31;0.40;;;0.40;;
9520;SDS011;4798;41.574;23.734;2023-02-23T04:11:29;0.80;;;0.80;;
9520;SDS011;4798;41.574;23.734;2023-02-23T04:14:22;1.23;;;0.60;;
9520;SDS011;4798;41.574;23.734;2023-02-23T04:16:55;0.50;;;0.50;;
9520;SDS011;4798;41.574;23.734;2023-02-23T04:19:26;0.40;;;0.30;;
9520;SDS011;4798;41.574;23.734;2023-02-23T04:21:55;1.07;;;1.07;;
9520;SDS011;4798;41.574;23.734;2023-02-23T04:24:23;0.50;;;0.50;;
9520;SDS011;4798;41.574;23.734;2023-02-23T04:26:52;1.27;;;1.17;;
9520;SDS011;4798;41.574;23.734;2023-02-23T04:29:20;0.70;;;0.67;;
9520;SDS011;4798;41.574;23.734;2023-02-23T04:31:48;0.70;;;0.70;;
9520;SDS011;4798;41.574;23.734;2023-02-23T04:34:17;0.30;;;0.30;;
9520;SDS011;4798;41.574;23.734;2023-02-23T04:36:47;1.03;;;0.83;;
9520;SDS011;4798;41.574;23.734;2023-02-23T04:39:16;2.33;;;1.53;;
9520;SDS011;4798;41.574;23.734;2023-02-23T04:41:45;0.40;;;0.33;;
9520;SDS011;4798;41.574;23.734;2023-02-23T04:44:14;1.37;;;0.80;;
9520;SDS011;4798;41.574;23.734;2023-02-23T04:46:42;1.67;;;0.53;;
9520;SDS011;4798;41.574;23.734;2023-02-23T04:49:11;0.90;;;0.83;;
9520;SDS011;4798;41.574;23.734;2023-02-23T04:51:39;0.37;;;0.33;;
9520;SDS011;4798;41.574;23.734;2023-02-23T04:54:09;0.40;;;0.30;;
9520;SDS011;4798;41.574;23.734;2023-02-23T04:56:37;0.50;;;0.50;;
9520;SDS011;4798;41.574;23.734;2023-02-23T04:59:06;0.40;;;0.30;;
9520;SDS011;4798;41.574;23.734;2023-02-23T05:01:34;0.50;;;0.50;;
9520;SDS011;4798;41.574;23.734;2023-02-23T05:04:02;0.30;;;0.20;;
9520;SDS011;4798;41.574;23.734;2023-02-23T05:06:31;0.40;;;0.30;;
9520;SDS011;4798;41.574;23.734;2023-02-23T05:08:59;0.40;;;0.37;;
9520;SDS011;4798;41.574;23.734;2023-02-23T05:11:30;0.60;;;0.50;;
9520;SDS011;4798;41.574;23.734;2023-02-23T05:13:58;0.73;;;0.73;;
9520;SDS011;4798;41.574;23.734;2023-02-23T05:16:27;0.90;;;0.90;;
9520;SDS011;4798;41.574;23.734;2023-02-23T05:18:55;4.73;;;0.60;;
9520;SDS011;4798;41.574;23.734;2023-02-23T05:21:23;0.73;;;0.73;;
9520;SDS011;4798;41.574;23.734;2023-02-23T05:23:51;3.90;;;1.47;;
9520;SDS011;4798;41.574;23.734;2023-02-23T05:26:20;0.30;;;0.27;;
9520;SDS011;4798;41.574;23.734;2023-02-23T05:28:49;2.20;;;0.90;;
9520;SDS011;4798;41.574;23.734;2023-02-23T05:31:18;1.30;;;1.30;;
9520;SDS011;4798;41.574;23.734;2023-02-23T05:33:47;0.80;;;0.80;;
9520;SDS011;4798;41.574;23.734;2023-02-23T05:36:16;0.70;;;0.70;;
9520;SDS011;4798;41.574;23.734;2023-02-23T05:38:47;0.60;;;0.57;;
9520;SDS011;4798;41.574;23.734;2023-02-23T05:41:16;0.37;;;0.30;;
9520;SDS011;4798;41.574;23.734;2023-02-23T05:43:47;1.83;;;1.00;;
9520;SDS011;4798;41.574;23.734;2023-02-23T05:46:19;9.63;;;2.27;;
9520;SDS011;4798;41.574;23.734;2023-02-23T05:48:50;1.30;;;1.20;;
9520;SDS011;4798;41.574;23.734;2023-02-23T05:51:18;10.23;;;3.73;;
9520;SDS011;4798;41.574;23.734;2023-02-23T05:53:47;1.90;;;1.80;;
9520;SDS011;4798;41.574;23.734;2023-02-23T05:56:16;5.83;;;0.80;;
9520;SDS011;4798;41.574;23.734;2023-02-23T05:58:46;2.40;;;1.80;;
9520;SDS011;4798;41.574;23.734;2023-02-23T06:01:16;0.63;;;0.63;;
9520;SDS011;4798;41.574;23.734;2023-02-23T06:03:45;1.33;;;0.77;;
9520;SDS011;4798;41.574;23.734;2023-02-23T06:06:14;12.07;;;3.70;;
9520;SDS011;4798;41.574;23.734;2023-02-23T06:08:43;2.90;;;2.70;;
9520;SDS011;4798;41.574;23.734;2023-02-23T06:11:11;7.53;;;3.40;;
9520;SDS011;4798;41.574;23.734;2023-02-23T06:13:42;2.37;;;2.17;;
9520;SDS011;4798;41.574;23.734;2023-02-23T06:16:11;3.63;;;3.33;;
9520;SDS011;4798;41.574;23.734;2023-02-23T06:18:41;2.53;;;2.07;;
9520;SDS011;4798;41.574;23.734;2023-02-23T06:21:09;10.97;;;2.40;;
9520;SDS011;4798;41.574;23.734;2023-02-23T06:23:37;2.23;;;2.13;;
9520;SDS011;4798;41.574;23.734;2023-02-23T06:26:06;1.03;;;0.90;;
9520;SDS011;4798;41.574;23.734;2023-02-23T06:28:34;0.87;;;0.87;;
9520;SDS011;4798;41.574;23.734;2023-02-23T06:31:03;0.73;;;0.70;;
9520;SDS011;4798;41.574;23.734;2023-02-23T06:33:32;1.60;;;1.60;;
9520;SDS011;4798;41.574;23.734;2023-02-23T06:36:02;1.93;;;1.83;;
9520;SDS011;4798;41.574;23.734;2023-02-23T06:38:31;2.50;;;2.30;;
9520;SDS011;4798;41.574;23.734;2023-02-23T06:40:59;2.53;;;2.43;;
9520;SDS011;4798;41.574;23.734;2023-02-23T06:43:27;2.90;;;2.70;;
9520;SDS011;4798;41.574;23.734;2023-02-23T06:45:57;1.40;;;1.30;;
9520;SDS011;4798;41.574;23.734;2023-02-23T06:48:25;4.20;;;2.00;;
9520;SDS011;4798;41.574;23.734;2023-02-23T06:50:53;4.93;;;1.90;;
9520;SDS011;4798;41.574;23.734;2023-02-23T06:53:26;3.27;;;1.47;;
9520;SDS011;4798;41.574;23.734;2023-02-23T06:55:54;2.63;;;1.70;;
9520;SDS011;4798;41.574;23.734;2023-02-23T06:58:22;2.77;;;0.70;;
9520;SDS011;4798;41.574;23.734;2023-02-23T07:00:51;0.60;;;0.60;;
9520;SDS011;4798;41.574;23.734;2023-02-23T07:03:21;0.50;;;0.40;;
9520;SDS011;4798;41.574;23.734;2023-02-23T07:05:50;3.70;;;0.93;;
9520;SDS011;4798;41.574;23.734;2023-02-23T07:08:20;0.57;;;0.57;;
9520;SDS011;4798;41.574;23.734;2023-02-23T07:10:51;0.40;;;0.30;;
9520;SDS011;4798;41.574;23.734;2023-02-23T07:13:23;0.70;;;0.70;;
9520;SDS011;4798;41.574;23.734;2023-02-23T07:15:55;1.47;;;1.37;;
9520;SDS011;4798;41.574;23.734;2023-02-23T07:18:25;3.40;;;2.33;;
9520;SDS011;4798;41.574;23.734;2023-02-23T07:20:53;5.13;;;1.73;;
9520;SDS011;4798;41.574;23.734;2023-02-23T07:23:21;4.50;;;1.83;;
9520;SDS011;4798;41.574;23.734;2023-02-23T07:25:51;3.03;;;1.90;;
9520;SDS011;4798;41.574;23.734;2023-02-23T07:28:22;6.93;;;3.27;;
9520;SDS011;4798;41.574;23.734;2023-02-23T07:30:53;5.53;;;3.57;;
9520;SDS011;4798;41.574;23.734;2023-02-23T07:33:22;2.07;;;1.97;;
9520;SDS011;4798;41.574;23.734;2023-02-23T07:35:51;1.87;;;1.77;;
9520;SDS011;4798;41.574;23.734;2023-02-23T07:38:19;2.57;;;2.47;;
9520;SDS011;4798;41.574;23.734;2023-02-23T07:40:48;1.40;;;0.97;;
9520;SDS011;4798;41.574;23.734;2023-02-23T07:43:18;1.03;;;0.93;;
9520;SDS011;4798;41.574;23.734;2023-02-23T07:45:48;0.53;;;0.53;;
9520;SDS011;4798;41.574;23.734;2023-02-23T07:48:19;0.80;;;0.67;;
9520;SDS011;4798;41.574;23.734;2023-02-23T07:50:48;1.70;;;0.50;;
9520;SDS011;4798;41.574;23.734;2023-02-23T07:53:16;0.63;;;0.63;;
9520;SDS011;4798;41.574;23.734;2023-02-23T07:55:44;2.23;;;1.17;;
9520;SDS011;4798;41.574;23.734;2023-02-23T07:58:12;2.20;;;1.27;;
9520;SDS011;4798;41.574;23.734;2023-02-23T08:00:42;0.40;;;0.30;;
9520;SDS011;4798;41.574;23.734;2023-02-23T08:03:11;1.40;;;1.30;;
9520;SDS011;4798;41.574;23.734;2023-02-23T08:05:39;1.17;;;1.17;;
9520;SDS011;4798;41.574;23.734;2023-02-23T08:08:07;0.63;;;0.63;;
9520;SDS011;4798;41.574;23.734;2023-02-23T08:10:36;0.70;;;0.70;;
9520;SDS011;4798;41.574;23.734;2023-02-23T08:13:05;1.00;;;1.00;;
9520;SDS011;4798;41.574;23.734;2023-02-23T08:15:33;0.43;;;0.40;;
9520;SDS011;4798;41.574;23.734;2023-02-23T08:18:03;0.87;;;0.40;;
9520;SDS011;4798;41.574;23.734;2023-02-23T08:20:32;0.50;;;0.47;;
9520;SDS011;4798;41.574;23.734;2023-02-23T08:23:00;1.07;;;0.70;;
9520;SDS011;4798;41.574;23.734;2023-02-23T08:25:28;0.70;;;0.70;;
9520;SDS011;4798;41.574;23.734;2023-02-23T08:27:56;0.43;;;0.43;;
9520;SDS011;4798;41.574;23.734;2023-02-23T08:30:30;0.77;;;0.50;;
9520;SDS011;4798;41.574;23.734;2023-02-23T08:32:58;1.10;;;0.97;;
9520;SDS011;4798;41.574;23.734;2023-02-23T08:35:28;0.60;;;0.60;;
9520;SDS011;4798;41.574;23.734;2023-02-23T08:37:56;0.50;;;0.50;;
9520;SDS011;4798;41.574;23.734;2023-02-23T08:40:25;0.77;;;0.77;;
9520;SDS011;4798;41.574;23.734;2023-02-23T08:42:54;8.47;;;1.97;;
9520;SDS011;4798;41.574;23.734;2023-02-23T08:45:22;7.90;;;0.97;;
9520;SDS011;4798;41.574;23.734;2023-02-23T08:47:50;0.50;;;0.40;;
9520;SDS011;4798;41.574;23.734;2023-02-23T08:50:21;1.77;;;1.07;;
9520;SDS011;4798;41.574;23.734;2023-02-23T08:52:54;0.60;;;0.50;;
9520;SDS011;4798;41.574;23.734;2023-02-23T08:55:22;1.03;;;0.93;;
9520;SDS011;4798;41.574;23.734;2023-02-23T08:57:50;5.80;;;1.13;;
9520;SDS011;4798;41.574;23.734;2023-02-23T09:00:19;0.53;;;0.50;;
9520;SDS011;4798;41.574;23.734;2023-02-23T09:02:48;0.60;;;0.50;;
9520;SDS011;4798;41.574;23.734;2023-02-23T09:05:16;0.40;;;0.37;;
9520;SDS011;4798;41.574;23.734;2023-02-23T09:07:46;1.13;;;1.03;;
9520;SDS011;4798;41.574;23.734;2023-02-23T09:10:17;1.40;;;1.30;;
9520;SDS011;4798;41.574;23.734;2023-02-23T09:12:49;1.00;;;1.00;;
9520;SDS011;4798;41.574;23.734;2023-02-23T09:15:18;0.53;;;0.53;;
9520;SDS011;4798;41.574;23.734;2023-02-23T09:17:46;0.70;;;0.50;;
9520;SDS011;4798;41.574;23.734;2023-02-23T09:20:15;0.93;;;0.40;;
9520;SDS011;4798;41.574;23.734;2023-02-23T09:22:44;0.97;;;0.80;;
9520;SDS011;4798;41.574;23.734;2023-02-23T09:25:16;1.30;;;1.20;;
9520;SDS011;4798;41.574;23.734;2023-02-23T09:27:47;4.50;;;0.50;;
9520;SDS011;4798;41.574;23.734;2023-02-23T09:30:17;0.70;;;0.70;;
9520;SDS011;4798;41.574;23.734;2023-02-23T09:32:46;0.83;;;0.83;;
9520;SDS011;4798;41.574;23.734;2023-02-23T09:35:15;1.13;;;0.93;;
9520;SDS011;4798;41.574;23.734;2023-02-23T09:37:46;0.73;;;0.73;;
9520;SDS011;4798;41.574;23.734;2023-02-23T09:40:17;1.10;;;0.90;;
9520;SDS011;4798;41.574;23.734;2023-02-23T09:42:51;1.30;;;1.20;;
9520;SDS011;4798;41.574;23.734;2023-02-23T09:45:28;4.07;;;0.50;;
9520;SDS011;4798;41.574;23.734;2023-02-23T09:48:08;3.30;;;1.07;;
9520;SDS011;4798;41.574;23.734;2023-02-23T09:50:40;1.17;;;0.80;;
9520;SDS011;4798;41.574;23.734;2023-02-23T09:53:14;0.80;;;0.67;;
9520;SDS011;4798;41.574;23.734;2023-02-23T09:56:02;0.67;;;0.67;;
9520;SDS011;4798;41.574;23.734;2023-02-23T09:58:35;0.50;;;0.47;;
9520;SDS011;4798;41.574;23.734;2023-02-23T10:04:19;0.43;;;0.43;;
9520;SDS011;4798;41.574;23.734;2023-02-23T10:06:51;0.83;;;0.83;;
9520;SDS011;4798;41.574;23.734;2023-02-23T10:09:26;1.80;;;0.50;;
9520;SDS011;4798;41.574;23.734;2023-02-23T10:12:08;1.20;;;1.00;;
9520;SDS011;4798;41.574;23.734;2023-02-23T10:14:46;0.43;;;0.40;;
9520;SDS011;4798;41.574;23.734;2023-02-23T10:17:28;1.10;;;1.03;;
9520;SDS011;4798;41.574;23.734;2023-02-23T10:20:10;0.70;;;0.70;;
9520;SDS011;4798;41.574;23.734;2023-02-23T10:22:45;0.40;;;0.30;;
9520;SDS011;4798;41.574;23.734;2023-02-23T10:25:16;1.00;;;0.63;;
9520;SDS011;4798;41.574;23.734;2023-02-23T10:27:51;0.70;;;0.60;;
9520;SDS011;4798;41.574;23.734;2023-02-23T10:30:23;0.50;;;0.50;;
9520;SDS011;4798;41.574;23.734;2023-02-23T10:32:55;0.40;;;0.33;;
9520;SDS011;4798;41.574;23.734;2023-02-23T10:35:28;0.50;;;0.30;;
9520;SDS011;4798;41.574;23.734;2023-02-23T10:37:58;0.60;;;0.40;;
9520;SDS011;4798;41.574;23.734;2023-02-23T10:40:29;1.80;;;0.40;;
9520;SDS011;4798;41.574;23.734;2023-02-23T10:43:01;0.70;;;0.60;;
9520;SDS011;4798;41.574;23.734;2023-02-23T10:45:33;0.50;;;0.50;;
9520;SDS011;4798;41.574;23.734;2023-02-23T10:48:06;0.50;;;0.40;;
9520;SDS011;4798;41.574;23.734;2023-02-23T10:50:39;0.70;;;0.70;;
9520;SDS011;4798;41.574;23.734;2023-02-23T10:53:12;0.80;;;0.77;;
9520;SDS011;4798;41.574;23.734;2023-02-23T10:55:43;0.40;;;0.40;;
9520;SDS011;4798;41.574;23.734;2023-02-23T10:58:15;0.60;;;0.60;;
9520;SDS011;4798;41.574;23.734;2023-02-23T11:00:49;0.53;;;0.53;;
9520;SDS011;4798;41.574;23.734;2023-02-23T11:03:24;5.10;;;0.73;;
9520;SDS011;4798;41.574;23.734;2023-02-23T11:05:56;0.50;;;0.50;;
9520;SDS011;4798;41.574;23.734;2023-02-23T11:08:26;2.20;;;0.37;;
9520;SDS011;4798;41.574;23.734;2023-02-23T11:10:58;2.93;;;0.40;;
9520;SDS011;4798;41.574;23.734;2023-02-23T11:13:38;0.57;;;0.40;;
9520;SDS011;4798;41.574;23.734;2023-02-23T11:16:09;0.40;;;0.30;;
9520;SDS011;4798;41.574;23.734;2023-02-23T11:18:40;0.87;;;0.40;;
9520;SDS011;4798;41.574;23.734;2023-02-23T11:21:11;0.60;;;0.50;;
9520;SDS011;4798;41.574;23.734;2023-02-23T11:23:44;0.80;;;0.50;;
9520;SDS011;4798;41.574;23.734;2023-02-23T11:29:12;3.43;;;0.60;;
9520;SDS011;4798;41.574;23.734;2023-02-23T11:31:45;1.27;;;1.17;;
9520;SDS011;4798;41.574;23.734;2023-02-23T11:34:19;0.50;;;0.50;;
9520;SDS011;4798;41.574;23.734;2023-02-23T11:36:57;0.73;;;0.57;;
9520;SDS011;4798;41.574;23.734;2023-02-23T11:39:28;0.63;;;0.60;;
9520;SDS011;4798;41.574;23.734;2023-02-23T11:42:13;0.60;;;0.50;;
9520;SDS011;4798;41.574;23.734;2023-02-23T11:47:37;2.70;;;0.77;;
9520;SDS011;4798;41.574;23.734;2023-02-23T11:50:07;0.50;;;0.43;;
9520;SDS011;4798;41.574;23.734;2023-02-23T11:52:50;0.50;;;0.50;;
9520;SDS011;4798;41.574;23.734;2023-02-23T11:55:24;0.80;;;0.70;;
9520;SDS011;4798;41.574;23.734;2023-02-23T11:57:53;0.93;;;0.83;;
9520;SDS011;4798;41.574;23.734;2023-02-23T12:00:37;0.50;;;0.50;;
9520;SDS011;4798;41.574;23.734;2023-02-23T12:03:05;2.57;;;1.30;;
9520;SDS011;4798;41.574;23.734;2023-02-23T12:05:34;0.60;;;0.60;;
9520;SDS011;4798;41.574;23.734;2023-02-23T12:08:03;0.90;;;0.47;;
9520;SDS011;4798;41.574;23.734;2023-02-23T12:10:36;0.70;;;0.70;;
9520;SDS011;4798;41.574;23.734;2023-02-23T12:13:14;1.63;;;0.70;;
9520;SDS011;4798;41.574;23.734;2023-02-23T12:15:54;0.53;;;0.40;;
9520;SDS011;4798;41.574;23.734;2023-02-23T12:18:29;0.57;;;0.57;;
9520;SDS011;4798;41.574;23.734;2023-02-23T12:21:09;1.10;;;0.53;;
9520;SDS011;4798;41.574;23.734;2023-02-23T12:23:44;0.50;;;0.30;;
9520;SDS011;4798;41.574;23.734;2023-02-23T12:26:19;0.97;;;0.97;;
9520;SDS011;4798;41.574;23.734;2023-02-23T12:28:51;0.70;;;0.57;;
9520;SDS011;4798;41.574;23.734;2023-02-23T12:31:26;3.60;;;0.97;;
9520;SDS011;4798;41.574;23.734;2023-02-23T12:34:01;0.90;;;0.90;;
9520;SDS011;4798;41.574;23.734;2023-02-23T12:36:38;2.30;;;1.30;;
9520;SDS011;4798;41.574;23.734;2023-02-23T12:39:12;0.60;;;0.50;;
9520;SDS011;4798;41.574;23.734;2023-02-23T12:41:47;1.50;;;1.40;;
9520;SDS011;4798;41.574;23.734;2023-02-23T12:44:28;2.83;;;1.43;;
9520;SDS011;4798;41.574;23.734;2023-02-23T12:47:03;0.37;;;0.30;;
9520;SDS011;4798;41.574;23.734;2023-02-23T12:49:42;0.60;;;0.50;;
9520;SDS011;4798;41.574;23.734;2023-02-23T12:52:16;0.40;;;0.30;;
9520;SDS011;4798;41.574;23.734;2023-02-23T12:54:49;0.50;;;0.50;;
9520;SDS011;4798;41.574;23.734;2023-02-23T12:57:21;0.70;;;0.60;;
9520;SDS011;4798;41.574;23.734;2023-02-23T13:03:10;1.40;;;1.37;;
9520;SDS011;4798;41.574;23.734;2023-02-23T13:05:55;0.43;;;0.40;;
9520;SDS011;4798;41.574;23.734;2023-02-23T13:08:35;0.57;;;0.57;;
9520;SDS011;4798;41.574;23.734;2023-02-23T13:11:20;0.50;;;0.40;;
9520;SDS011;4798;41.574;23.734;2023-02-23T13:13:55;1.30;;;0.83;;
9520;SDS011;4798;41.574;23.734;2023-02-23T13:16:31;0.40;;;0.30;;
9520;SDS011;4798;41.574;23.734;2023-02-23T13:19:08;0.50;;;0.43;;
9520;SDS011;4798;41.574;23.734;2023-02-23T13:21:45;0.97;;;0.80;;
9520;SDS011;4798;41.574;23.734;2023-02-23T13:24:21;0.70;;;0.50;;
9520;SDS011;4798;41.574;23.734;2023-02-23T13:26:54;12.17;;;0.87;;
9520;SDS011;4798;41.574;23.734;2023-02-23T13:29:30;0.50;;;0.50;;
9520;SDS011;4798;41.574;23.734;2023-02-23T13:32:03;0.50;;;0.50;;
9520;SDS011;4798;41.574;23.734;2023-02-23T13:34:40;0.80;;;0.80;;
9520;SDS011;4798;41.574;23.734;2023-02-23T13:37:11;5.10;;;1.07;;
9520;SDS011;4798;41.574;23.734;2023-02-23T13:39:47;1.90;;;0.70;;
9520;SDS011;4798;41.574;23.734;2023-02-23T13:42:25;2.73;;;1.73;;
9520;SDS011;4798;41.574;23.734;2023-02-23T13:45:20;0.50;;;0.47;;
9520;SDS011;4798;41.574;23.734;2023-02-23T13:47:55;2.10;;;0.97;;
9520;SDS011;4798;41.574;23.734;2023-02-23T13:50:33;5.30;;;1.90;;
9520;SDS011;4798;41.574;23.734;2023-02-23T13:53:26;1.50;;;1.40;;
9520;SDS011;4798;41.574;23.734;2023-02-23T13:55:59;1.90;;;1.40;;
9520;SDS011;4798;41.574;23.734;2023-02-23T13:58:32;1.07;;;0.77;;
9520;SDS011;4798;41.574;23.734;2023-02-23T14:01:08;0.90;;;0.70;;
9520;SDS011;4798;41.574;23.734;2023-02-23T14:03:39;1.43;;;1.33;;
9520;SDS011;4798;41.574;23.734;2023-02-23T14:06:16;2.20;;;0.90;;
9520;SDS011;4798;41.574;23.734;2023-02-23T14:08:50;4.57;;;1.67;;
9520;SDS011;4798;41.574;23.734;2023-02-23T14:11:32;3.73;;;1.17;;
9520;SDS011;4798;41.574;23.734;2023-02-23T14:14:11;5.93;;;2.20;;
9520;SDS011;4798;41.574;23.734;2023-02-23T14:16:42;1.53;;;1.43;;
9520;SDS011;4798;41.574;23.734;2023-02-23T14:19:33;1.47;;;1.37;;
9520;SDS011;4798;41.574;23.734;2023-02-23T14:22:07;1.30;;;1.17;;
9520;SDS011;4798;41.574;23.734;2023-02-23T14:24:37;1.23;;;1.13;;
9520;SDS011;4798;41.574;23.734;2023-02-23T14:32:53;0.97;;;0.97;;
9520;SDS011;4798;41.574;23.734;2023-02-23T14:35:47;0.90;;;0.77;;
9520;SDS011;4798;41.574;23.734;2023-02-23T14:38:30;2.00;;;1.77;;
9520;SDS011;4798;41.574;23.734;2023-02-23T14:41:13;0.87;;;0.60;;
9520;SDS011;4798;41.574;23.734;2023-02-23T14:43:42;1.50;;;0.87;;
9520;SDS011;4798;41.574;23.734;2023-02-23T14:46:13;1.27;;;1.00;;
9520;SDS011;4798;41.574;23.734;2023-02-23T14:48:56;3.47;;;1.00;;
9520;SDS011;4798;41.574;23.734;2023-02-23T14:51:33;0.67;;;0.63;;
9520;SDS011;4798;41.574;23.734;2023-02-23T14:54:18;1.00;;;1.00;;
9520;SDS011;4798;41.574;23.734;2023-02-23T14:56:51;0.80;;;0.80;;
9520;SDS011;4798;41.574;23.734;2023-02-23T14:59:21;0.70;;;0.70;;
9520;SDS011;4798;41.574;23.734;2023-02-23T15:01:53;1.10;;;0.70;;
9520;SDS011;4798;41.574;23.734;2023-02-23T15:04:22;0.70;;;0.70;;
9520;SDS011;4798;41.574;23.734;2023-02-23T15:06:53;6.83;;;1.93;;
9520;SDS011;4798;41.574;23.734;2023-02-23T15:09:29;6.43;;;1.43;;
9520;SDS011;4798;41.574;23.734;2023-02-23T15:12:05;0.80;;;0.80;;
9520;SDS011;4798;41.574;23.734;2023-02-23T15:14:42;1.17;;;1.07;;
9520;SDS011;4798;41.574;23.734;2023-02-23T15:17:13;1.20;;;1.13;;
9520;SDS011;4798;41.574;23.734;2023-02-23T15:19:44;2.10;;;1.47;;
9520;SDS011;4798;41.574;23.734;2023-02-23T15:22:18;1.40;;;1.33;;
9520;SDS011;4798;41.574;23.734;2023-02-23T15:24:54;0.70;;;0.70;;
9520;SDS011;4798;41.574;23.734;2023-02-23T15:27:28;2.07;;;1.87;;
9520;SDS011;4798;41.574;23.734;2023-02-23T15:29:57;9.37;;;3.87;;
9520;SDS011;4798;41.574;23.734;2023-02-23T15:32:30;5.13;;;1.73;;
9520;SDS011;4798;41.574;23.734;2023-02-23T15:34:58;3.80;;;2.10;;
9520;SDS011;4798;41.574;23.734;2023-02-23T15:37:30;2.00;;;0.80;;
9520;SDS011;4798;41.574;23.734;2023-02-23T15:40:04;3.13;;;2.57;;
9520;SDS011;4798;41.574;23.734;2023-02-23T15:42:38;2.90;;;2.37;;
9520;SDS011;4798;41.574;23.734;2023-02-23T15:45:13;5.03;;;1.40;;
9520;SDS011;4798;41.574;23.734;2023-02-23T15:47:46;1.63;;;1.53;;
9520;SDS011;4798;41.574;23.734;2023-02-23T15:50:16;2.10;;;0.97;;
9520;SDS011;4798;41.574;23.734;2023-02-23T15:53:02;2.20;;;2.00;;
9520;SDS011;4798;41.574;23.734;2023-02-23T15:55:41;1.67;;;1.40;;
9520;SDS011;4798;41.574;23.734;2023-02-23T15:58:11;0.80;;;0.70;;
9520;SDS011;4798;41.574;23.734;2023-02-23T16:00:49;7.93;;;1.53;;
9520;SDS011;4798;41.574;23.734;2023-02-23T16:03:22;1.80;;;1.13;;
9520;SDS011;4798;41.574;23.734;2023-02-23T16:05:55;0.80;;;0.50;;
9520;SDS011;4798;41.574;23.734;2023-02-23T16:08:27;2.10;;;1.10;;
9520;SDS011;4798;41.574;23.734;2023-02-23T16:11:01;3.40;;;1.77;;
9520;SDS011;4798;41.574;23.734;2023-02-23T16:13:40;1.53;;;1.27;;